KFSW

Fort Madison Municipal Airport

Fort Madison, Iowa, USA
METAR KFSW 210515Z AUTO 00000KT 10SM BKN050 21/20 A2981 RMK AO2
Observed Flight Rules
Aug-21 @ 05:15 UTC (9 hours ago) Visual Flight Rules
Visibility Clouds
10 miles
  • Broken at 5,000' AGL
Temperatures Readings
Current 21°C / 70°F
Dewpoint 20°C / 68°F
Humidity 94%
Altimeter 29.81" Hg
Pressure 1009 hPa
Elevation 221
METAR KFSW 210515Z AUTO 00000KT 10SM BKN050 21/20 A2981 RMK AO2
Observed Flight Rules
Aug-21 @ 05:15 UTC
(9 hours ago)
VFR
Clouds
  • Broken at 5,000' AGL
Temperature Dewpoint
21°C / 70°F 20°C / 68°F
Humidity Altimeter Pressure
94% 29.81" Hg 1009 hPa